createdAt,value
2017-07-30T00:04:53.034Z,99984
2017-07-30T00:09:56.965Z,99980
2017-07-30T00:15:00.165Z,99968
2017-07-30T00:20:04.088Z,99962
2017-07-30T00:25:08.049Z,99951
2017-07-30T00:30:11.357Z,99941
2017-07-30T00:35:14.548Z,99944
2017-07-30T00:40:17.745Z,99936
2017-07-30T00:45:21.671Z,99936
2017-07-30T00:50:24.850Z,99935
2017-07-30T00:55:28.766Z,99929
2017-07-30T01:00:31.948Z,99937
2017-07-30T01:05:35.173Z,99932
2017-07-30T01:10:38.357Z,99943
2017-07-30T01:15:41.510Z,99912
2017-07-30T01:20:45.465Z,99916
2017-07-30T01:25:48.652Z,99922
2017-07-30T01:30:51.846Z,99915
2017-07-30T01:35:55.864Z,99916
2017-07-30T01:40:59.037Z,99913
2017-07-30T01:46:02.240Z,99904
2017-07-30T01:51:05.511Z,99896
2017-07-30T01:56:08.724Z,99898
2017-07-30T02:01:11.898Z,99894
2017-07-30T02:06:15.853Z,99895
2017-07-30T02:11:19.040Z,99912
2017-07-30T02:16:23.015Z,99904
2017-07-30T02:21:26.202Z,99906
2017-07-30T02:26:29.377Z,99894
2017-07-30T02:31:33.325Z,99892
2017-07-30T02:36:36.577Z,99889
2017-07-30T02:41:39.773Z,99874
2017-07-30T02:46:42.957Z,99878
2017-07-30T02:51:46.146Z,99887
2017-07-30T02:56:49.391Z,99881
2017-07-30T03:01:52.573Z,99879
2017-07-30T03:06:55.785Z,99874
2017-07-30T03:11:58.985Z,99867
2017-07-30T03:17:02.179Z,99858
2017-07-30T03:22:05.399Z,99861
2017-07-30T03:27:08.586Z,99857
2017-07-30T03:32:12.553Z,99854
2017-07-30T03:37:15.764Z,99849
2017-07-30T03:42:19.969Z,99854
2017-07-30T03:47:23.163Z,99851
2017-07-30T03:52:26.365Z,99861
2017-07-30T03:57:29.573Z,99858
2017-07-30T04:02:33.548Z,99852
2017-07-30T04:07:36.978Z,99855
2017-07-30T04:12:40.133Z,99856
2017-07-30T04:17:43.305Z,99861
2017-07-30T04:22:46.488Z,99848
2017-07-30T04:27:49.701Z,99841
2017-07-30T04:32:52.900Z,99836
2017-07-30T04:37:56.193Z,99835
2017-07-30T04:42:59.373Z,99833
2017-07-30T04:48:02.543Z,99826
2017-07-30T04:53:06.507Z,99810
2017-07-30T04:58:09.684Z,99828
2017-07-30T05:03:13.658Z,99826
2017-07-30T05:08:16.830Z,99821
2017-07-30T05:13:20.013Z,99826
2017-07-30T05:18:23.997Z,99841
2017-07-30T05:23:27.221Z,99838
2017-07-30T05:28:30.398Z,99820
2017-07-30T05:33:33.570Z,99837
2017-07-30T05:38:37.506Z,99847
2017-07-30T05:43:40.682Z,99853
2017-07-30T05:48:43.856Z,99857
2017-07-30T05:53:47.169Z,99866
2017-07-30T05:58:50.356Z,99863
2017-07-30T06:03:53.549Z,99869
2017-07-30T06:08:56.713Z,99884
2017-07-30T06:13:59.906Z,99872
2017-07-30T06:19:03.059Z,99882
2017-07-30T06:24:06.234Z,99885
2017-07-30T06:29:09.441Z,99880
2017-07-30T06:34:12.617Z,99886
2017-07-30T06:39:15.788Z,99881
2017-07-30T06:44:18.961Z,99892
2017-07-30T06:49:22.150Z,99899
2017-07-30T06:54:25.348Z,99907
2017-07-30T06:59:28.521Z,99910
2017-07-30T07:04:31.705Z,99910
2017-07-30T07:09:35.648Z,99893
2017-07-30T07:14:38.853Z,99901
2017-07-30T07:19:42.144Z,99895
2017-07-30T07:24:46.142Z,99896
2017-07-30T07:29:49.349Z,99892
2017-07-30T07:34:52.539Z,99894
2017-07-30T07:39:55.726Z,99889
2017-07-30T07:44:59.461Z,99893
2017-07-30T07:50:02.643Z,99892
2017-07-30T07:55:05.845Z,99894
2017-07-30T08:00:09.053Z,99882
2017-07-30T08:05:12.985Z,99895
2017-07-30T08:10:16.175Z,99894
2017-07-30T08:15:20.095Z,99911
2017-07-30T08:20:24.065Z,99886
2017-07-30T08:25:27.253Z,99885
2017-07-30T08:30:30.452Z,99880
2017-07-30T08:35:33.638Z,99893
2017-07-30T08:40:37.560Z,99898
2017-07-30T08:45:41.536Z,99907
2017-07-30T08:50:44.722Z,99926
2017-07-30T08:55:47.907Z,99929
2017-07-30T09:00:51.865Z,99934
2017-07-30T09:05:55.074Z,99945
2017-07-30T09:10:58.267Z,99942
2017-07-30T09:16:01.461Z,99937
2017-07-30T09:21:04.676Z,99945
2017-07-30T09:26:07.858Z,99953
2017-07-30T09:31:11.822Z,99955
2017-07-30T09:36:15.100Z,99961
2017-07-30T09:41:19.054Z,99951
2017-07-30T09:46:22.824Z,99937
2017-07-30T09:51:26.862Z,99925
2017-07-30T09:56:30.101Z,99904
2017-07-30T10:01:33.289Z,99898
2017-07-30T10:06:36.676Z,99905
2017-07-30T10:11:40.646Z,99924
2017-07-30T10:16:43.812Z,99948
2017-07-30T10:21:47.760Z,99956
2017-07-30T10:26:50.958Z,99966
2017-07-30T10:31:54.146Z,99965
2017-07-30T10:36:57.352Z,99957
2017-07-30T10:42:01.340Z,99957
2017-07-30T10:47:04.529Z,99961
2017-07-30T10:52:07.758Z,99944
2017-07-30T10:57:11.005Z,99948
2017-07-30T11:02:14.197Z,99906
2017-07-30T11:07:18.169Z,99938
2017-07-30T11:12:21.365Z,99969
2017-07-30T11:17:24.590Z,99965
2017-07-30T11:22:27.780Z,99963
2017-07-30T11:27:30.954Z,99966
2017-07-30T11:32:34.140Z,99997
2017-07-30T11:37:37.315Z,99999
2017-07-30T11:42:40.519Z,100015
2017-07-30T11:47:43.869Z,100014
2017-07-30T11:52:47.062Z,100006
2017-07-30T11:57:50.272Z,100010
2017-07-30T12:02:53.466Z,100026
2017-07-30T12:07:56.677Z,100008
2017-07-30T12:12:59.846Z,99992
2017-07-30T12:18:03.265Z,100031
2017-07-30T12:23:06.465Z,100020
2017-07-30T12:28:09.649Z,100032
2017-07-30T12:33:13.626Z,100041
2017-07-30T12:38:16.843Z,100033
2017-07-30T12:43:20.041Z,100028
2017-07-30T12:48:23.241Z,100040
2017-07-30T12:53:26.441Z,100060
2017-07-30T12:58:29.643Z,100031
2017-07-30T13:03:32.828Z,100046
2017-07-30T13:08:36.026Z,100056
2017-07-30T13:13:39.323Z,100074
2017-07-30T13:18:43.391Z,100068
2017-07-30T13:23:46.706Z,100076
2017-07-30T13:28:49.913Z,100085
2017-07-30T13:33:53.896Z,100076
2017-07-30T13:38:57.231Z,100092
2017-07-30T13:44:00.417Z,100080
2017-07-30T13:49:03.621Z,100091
2017-07-30T13:54:07.576Z,100075
2017-07-30T13:59:10.790Z,100081
2017-07-30T14:04:13.980Z,100080
2017-07-30T14:09:17.185Z,100035
2017-07-30T14:14:20.394Z,100056
2017-07-30T14:19:23.574Z,100050
2017-07-30T14:24:27.551Z,100056
2017-07-30T14:29:30.774Z,100047
2017-07-30T14:34:33.985Z,100041
2017-07-30T14:39:37.211Z,100030
2017-07-30T14:44:41.252Z,100000
2017-07-30T14:49:45.261Z,100012
2017-07-30T14:54:48.563Z,99999
2017-07-30T14:59:51.820Z,99966
2017-07-30T15:04:54.988Z,99950
2017-07-30T15:09:58.359Z,99957
2017-07-30T15:15:01.554Z,99950
2017-07-30T15:20:04.764Z,99951
2017-07-30T15:25:07.938Z,99960
2017-07-30T15:30:11.153Z,99967
2017-07-30T15:35:14.360Z,99976
2017-07-30T15:40:17.529Z,99992
2017-07-30T15:45:21.046Z,99994
2017-07-30T15:50:24.357Z,99995
2017-07-30T15:55:27.544Z,100000
2017-07-30T16:00:30.746Z,100017
2017-07-30T16:05:33.951Z,100010
2017-07-30T16:10:37.144Z,100034
2017-07-30T16:15:40.530Z,100021
2017-07-30T16:20:44.470Z,100020
2017-07-30T16:25:47.733Z,100030
2017-07-30T16:30:51.713Z,100024
2017-07-30T16:35:55.092Z,100018
2017-07-30T16:40:59.049Z,100021
2017-07-30T16:46:02.249Z,100022
2017-07-30T16:51:05.502Z,100032
2017-07-30T16:56:08.698Z,100018
2017-07-30T17:01:11.864Z,100027
2017-07-30T17:06:15.034Z,100035
2017-07-30T17:11:19.192Z,100030
2017-07-30T17:16:22.394Z,100029
2017-07-30T17:21:26.468Z,100030
2017-07-30T17:26:29.639Z,100034
2017-07-30T17:31:32.927Z,100020
2017-07-30T17:36:36.122Z,100033
2017-07-30T17:41:40.085Z,100032
2017-07-30T17:46:43.331Z,100047
2017-07-30T17:51:46.559Z,100051
2017-07-30T17:56:50.541Z,100045
2017-07-30T18:01:53.720Z,100043
2017-07-30T18:06:57.068Z,100038
2017-07-30T18:12:00.247Z,100033
2017-07-30T18:17:03.448Z,100025
2017-07-30T18:22:06.841Z,100027
2017-07-30T18:27:10.045Z,100035
2017-07-30T18:32:13.999Z,100040
2017-07-30T18:37:17.196Z,100039
2017-07-30T18:42:20.389Z,100047
2017-07-30T18:47:23.611Z,100050
2017-07-30T18:52:26.812Z,100064
2017-07-30T18:57:30.000Z,100080
2017-07-30T19:02:33.920Z,100066
2017-07-30T19:07:37.141Z,100073
2017-07-30T19:12:40.396Z,100070
2017-07-30T19:17:43.630Z,100075
2017-07-30T19:22:46.789Z,100083
2017-07-30T19:27:49.951Z,100078
2017-07-30T19:32:53.882Z,100068
2017-07-30T19:37:57.112Z,100073
2017-07-30T19:43:00.337Z,100076
2017-07-30T19:48:03.523Z,100088
2017-07-30T19:53:06.785Z,100090
2017-07-30T19:58:09.980Z,100090
2017-07-30T20:03:13.204Z,100115
2017-07-30T20:08:16.404Z,100107
2017-07-30T20:13:19.617Z,100107
2017-07-30T20:18:22.809Z,100110
2017-07-30T20:23:26.021Z,100108
2017-07-30T20:28:29.231Z,100111
2017-07-30T20:33:32.416Z,100112
2017-07-30T20:38:35.614Z,100116
2017-07-30T20:43:38.828Z,100117
2017-07-30T20:48:42.046Z,100123
2017-07-30T20:53:45.237Z,100134
2017-07-30T20:58:48.449Z,100136
2017-07-30T21:03:51.802Z,100144
2017-07-30T21:08:55.762Z,100147
2017-07-30T21:13:58.938Z,100149
2017-07-30T21:19:02.894Z,100156
2017-07-30T21:24:06.105Z,100158
2017-07-30T21:29:09.349Z,100165
2017-07-30T21:34:12.543Z,100164
2017-07-30T21:39:15.726Z,100145
2017-07-30T21:44:18.911Z,100148
2017-07-30T21:49:22.131Z,100164
2017-07-30T21:54:25.319Z,100162
2017-07-30T21:59:28.559Z,100167
2017-07-30T22:04:31.760Z,100167
2017-07-30T22:09:34.978Z,100174
2017-07-30T22:14:38.203Z,100176
2017-07-30T22:19:41.413Z,100175
2017-07-30T22:24:44.625Z,100185
2017-07-30T22:29:47.814Z,100202
2017-07-30T22:34:51.001Z,100208
2017-07-30T22:39:54.215Z,100215
2017-07-30T22:44:57.404Z,100218
2017-07-30T22:50:00.693Z,100213
2017-07-30T22:55:03.854Z,100222
2017-07-30T23:00:07.043Z,100215
2017-07-30T23:05:10.232Z,100221
2017-07-30T23:10:13.426Z,100218
2017-07-30T23:15:16.617Z,100219
2017-07-30T23:20:20.559Z,100214
2017-07-30T23:25:23.738Z,100214
2017-07-30T23:30:27.748Z,100217
2017-07-30T23:35:30.943Z,100224
2017-07-30T23:40:34.163Z,100223
2017-07-30T23:45:37.384Z,100236
2017-07-30T23:50:41.353Z,100227
2017-07-30T23:55:44.541Z,100230
